Aviation Digital Data Service (ADDS)

Output produced by METARs form (1338 UTC 19 April 2018)
found at http://aviationweather.gov/adds/metars/
 
KRDU 191120Z 1912/2012 23013KT P6SM SCT070 
     FM191500 27015G26KT P6SM BKN080 
     FM192000 30015G28KT P6SM SKC 
     FM200000 34006KT P6SM SKC